Terminal Aerodrome Forecast
Issued by NWS Wilmington, OH

Home | Current Version | Previous Version | Text Only | Print | Product List | Glossary On
Versions: 1 2 3 4 5 6 7 8 9 10 11 12 13 14 15 16 17 18 19 20 21 22 23 24 25
000
FTUS41 KILN 022300
TAFCVG
TAF
KCVG 022338Z 0300/0406 VRB04KT P6SM BKN200
     FM030600 09005KT P6SM OVC150
     FM031000 11005KT P6SM OVC050
     FM031300 14008KT 5SM -FZRA OVC015
     FM031500 15008KT 3SM -RA OVC008
     FM031900 22012KT 2SM -RA BR OVC006=

USA.gov is the U.S. government's official web portal to all federal, state and local government web resources and services.